• Join FlightAware (Why Join?)
  • Login
  • US Flag 
12:50AM EDT


 

Airport Tracker/Info


-or-


 

Live Flight TrackerFlight Track Log ✈ DAL2191 ✈ 30-Sep-2013 ✈ KATL - KTPA

Flight Track Log - Related Links

Times and Time Zones

All times are in EDT time to prevent confusion due to time zone crossing. See the DAL2191 flight status page for this flight to view local times or setup timezone preferences in your user account.

Time Position Orientation Groundspeed Altitude Reporting Facility
EDT Latitude Longitude Course Direction KTS MPH feet Rate Location/Type
12:47PM 33.6167 -84.3500 194° South 239 275 3,300  Level Atlanta TRACON
12:48PM 33.5833 -84.2667 116° Southeast 280 322 6,600 3,060 Climbing Atlanta TRACON
12:49PM 33.2456 -84.2891 194° South  Level Estimated
12:49PM 33.4622 -84.2803 185° South 313 360 11,500  Level Atlanta Center
12:50PM 33.1152 -84.2431 199° South  Level Estimated
12:50PM 33.3661 -84.3050 192° South 318 366 13,100  Level Atlanta Center
12:51PM 32.9848 -84.1973 179° South  Level Estimated
12:51PM 33.2594 -84.3369 194° South 359 413 14,400  Level Atlanta Center
12:52PM 32.8529 -84.2366 194° South  Level FlightAware Approximate
12:52PM 33.1467 -84.3689 193° South 404 465 16,300  Level Atlanta Center
12:53PM 33.0256 -84.4081 195° South 436 502 18,000 1,860 Climbing Atlanta Center
12:54PM 32.9044 -84.4247 187° South 442 509 20,100 1,740 Climbing Atlanta Center
12:55PM 32.7772 -84.4192 178° South 458 527 21,500 1,500 Climbing Atlanta Center
12:56PM 32.6456 -84.4186 180° South 463 533 23,200 2,040 Climbing Atlanta Center
12:57PM 32.5183 -84.4158 179° South 463 533 25,600 2,040 Climbing Atlanta Center
12:58PM 32.3953 -84.4128 179° South 452 520 27,300 1,560 Climbing Atlanta Center
12:59PM 32.2719 -84.4097 179° South 452 520 28,800 1,380 Climbing Atlanta Center
01:00PM 32.1489 -84.3994 176° South 447 514 30,100 1,200 Climbing Atlanta Center
01:01PM 32.0364 -84.3719 168° South 452 520 31,300 1,140 Climbing Atlanta Center
01:03PM 31.8556 -84.3333 170° South 474 545 32,900 720 Climbing Jacksonville Center
01:04PM 31.7328 -84.3069 170° South 468 539 33,000  Climbing Jacksonville Center
01:05PM 31.6056 -84.2781 169° South 463 533 33,000  Level Jacksonville Center
01:06PM 31.4808 -84.2519 170° South 468 539 33,000  Level Jacksonville Center
01:07PM 31.3614 -84.2672 186° South 436 502 33,000  Level Jacksonville Center
01:08PM 31.2625 -84.3436 213° Southwest 420 483 33,000  Level Jacksonville Center
01:09PM 31.1636 -84.4172 213° Southwest 420 483 33,000  Level Jacksonville Center
01:10PM 31.0503 -84.4664 200° South 427 491 33,000 -480 Level Jacksonville Center
01:11PM 30.9231 -84.4497 174° South 432 497 32,100 -960 Descending Jacksonville Center
01:12PM 30.7981 -84.4236 170° South 437 503 31,100 -1,200 Descending Jacksonville Center
01:13PM 30.6711 -84.3947 169° South 451 519 29,700 -1,200 Descending Jacksonville Center
01:14PM 30.5419 -84.3664 169° South 468 539 28,800 -900 Descending Jacksonville Center
01:15PM 30.4383 -84.2972 150° Southeast 468 539 27,900 -840 Descending Jacksonville Center
01:16PM 30.3264 -84.2233 150° Southeast 468 539 27,200 -1,200 Descending Jacksonville Center
01:17PM 30.2081 -84.1497 152° Southeast 453 521 25,500 -1,860 Descending Jacksonville Center
01:18PM 30.1064 -84.0811 150° Southeast 441 507 23,500 -1,860 Descending Jacksonville Center
01:19PM 30.0111 -84.0200 151° Southeast 435 501 21,800 -1,260 Descending Jacksonville Center
01:20PM 29.9133 -83.9564 151° Southeast 425 489 21,000 -420 Descending Jacksonville Center
01:21PM 29.8158 -83.8931 151° Southeast 413 475 21,000 -660 Level Jacksonville Center
01:22PM 29.7181 -83.8300 151° Southeast 407 468 19,700 -1,020 Descending Jacksonville Center
01:23PM 29.6206 -83.7694 152° Southeast 402 463 19,000 -360 Descending Jacksonville Center
01:24PM 29.5289 -83.7089 150° Southeast 396 456 19,000 -120 Level Jacksonville Center
01:25PM 29.4356 -83.6483 151° Southeast 396 456 18,800 -600 Descending Jacksonville Center
01:26PM 29.3397 -83.5881 151° Southeast 396 456 17,900 -900 Descending Jacksonville Center
01:27PM 29.2483 -83.5281 150° Southeast 391 450 17,000 -900 Descending Jacksonville Center
01:28PM 29.1567 -83.4703 151° Southeast 386 444 16,100 -900 Descending Jacksonville Center
01:29PM 29.0672 -83.4128 151° Southeast 376 433 15,200 -900 Descending Jacksonville Center
01:30PM 28.9775 -83.3553 151° Southeast 376 433 14,300 -900 Descending Jacksonville Center
01:31PM 28.8881 -83.3006 152° Southeast 370 426 13,400 -660 Descending Jacksonville Center
01:32PM 28.8028 -83.2433 150° Southeast 365 420 13,000 -240 Descending Jacksonville Center
01:33PM 28.7150 -83.1886 151° Southeast 365 420 13,000  Level Jacksonville Center
01:34PM 28.6000 -83.1167 151° Southeast 358 412 13,000 -180 Level Tampa TRACON
01:35PM 28.5000 -83.0500 150° Southeast 352 405 12,600 -600 Descending Tampa TRACON
01:36PM 28.4167 -83.0000 152° Southeast 306 352 11,700 -1,260 Descending Tampa TRACON
01:37PM 28.3500 -82.9500 147° Southeast 301 346 10,100 -1,440 Descending Tampa TRACON
01:38PM 28.3167 -82.8500 111° Southeast 298 343 8,800 -1,080 Descending Tampa TRACON
01:39PM 28.3000 -82.7667 103° East 291 335 7,900 -1,200 Descending Tampa TRACON
01:40PM 28.2833 -82.6833 103° East 276 318 6,400 -1,200 Descending Tampa TRACON
01:41PM 28.2167 -82.6167 139° Southeast 270 311 5,600 -840 Descending Tampa TRACON
01:42PM 28.1833 -82.5667 127° Southeast 228 262 4,800 -1,260 Descending Tampa TRACON
01:43PM 28.1333 -82.5167 139° Southeast 220 253 3,100 -1,560 Descending Tampa TRACON
01:44PM 28.0667 -82.5333 192° South 194 223 1,700 -1,200 Descending Tampa TRACON
01:45PM 28.0167 -82.5333 180° South 157 181 700 -1,020 Descending Tampa TRACON